< Typhoon 196902 1969 Season Typhoon 196904 >
Typhoon 196903 (SUSAN)
General InformationTrack Information on Google Maps || Disaster Info.ResourceGoogle EarthGE AnimationAtom FeedGeoJSON
Detalied Best Track (Time Zone = UTC)
Year Month Day Hour Lat. Long. Pressure (hPa) Wind (kt) Class Image Chart
1969 4 15 06 6.0 148.0 1006 0 2 -- Chart
1969 4 15 12 6.3 147.0 1008 0 2 -- Chart
1969 4 15 18 6.5 146.0 1008 0 2 -- Chart
1969 4 16 00 6.6 145.2 1008 0 2 -- Chart
1969 4 16 06 6.7 144.3 1008 0 2 -- Chart
1969 4 16 12 6.7 143.4 1008 0 2 -- Chart
1969 4 16 18 6.8 142.8 1008 0 2 -- Chart
1969 4 17 00 6.8 142.3 1008 0 2 -- Chart
1969 4 17 06 6.7 141.8 1006 0 2 -- Chart
1969 4 17 12 6.6 141.4 1006 0 2 -- Chart
1969 4 17 18 6.6 140.9 1004 0 2 -- Chart
1969 4 18 00 6.6 140.4 1002 0 2 -- Chart
1969 4 18 06 6.5 139.9 1000 0 2 -- Chart
1969 4 18 12 6.7 139.3 1000 0 2 -- Chart
1969 4 18 18 6.9 138.6 1000 0 2 -- Chart
1969 4 19 00 7.0 137.8 1000 0 2 -- Chart
1969 4 19 06 7.2 137.2 1000 0 2 -- Chart
1969 4 19 12 7.3 136.4 1000 0 2 -- Chart
1969 4 19 18 7.3 135.4 995 0 2 -- Chart
1969 4 20 00 7.3 134.5 990 0 9 -- Chart
1969 4 20 06 7.4 133.6 985 0 9 -- Chart
1969 4 20 12 7.6 132.7 975 0 9 -- Chart
1969 4 20 18 7.7 131.8 965 0 9 -- Chart
1969 4 21 00 7.7 131.2 955 0 9 -- Chart
1969 4 21 06 7.8 130.4 950 0 9 -- Chart
1969 4 21 12 7.9 129.9 945 0 9 -- Chart
1969 4 21 18 8.1 129.3 940 0 9 -- Chart
1969 4 22 00 8.3 128.8 940 0 9 -- Chart
1969 4 22 06 8.7 128.4 945 0 9 -- Chart
1969 4 22 12 9.2 127.8 945 0 9 -- Chart
1969 4 22 18 9.4 127.2 945 0 9 -- Chart
1969 4 23 00 9.5 126.8 945 0 9 -- Chart
1969 4 23 06 9.6 126.5 955 0 9 -- Chart
1969 4 23 12 9.7 126.2 960 0 9 -- Chart
1969 4 23 18 10.0 126.1 970 0 9 -- Chart
1969 4 24 00 10.0 125.8 980 0 9 -- Chart
1969 4 24 06 10.0 125.7 990 0 9 -- Chart
1969 4 24 12 10.0 125.6 995 0 9 -- Chart
1969 4 24 18 10.0 125.5 995 0 9 -- Chart
1969 4 25 00 10.0 125.5 1000 0 9 -- Chart
1969 4 25 06 9.8 125.0 1002 0 2 -- Chart
1969 4 25 12 9.6 124.6 1004 0 2 -- Chart
1969 4 25 18 9.2 124.2 1006 0 2 -- Chart
1969 4 26 00 8.9 123.6 1006 0 2 -- Chart
1969 4 26 06 8.6 122.9 1006 0 2 -- Chart
1969 4 26 12 8.5 122.4 1008 0 2 -- Chart
1969 4 26 18 8.4 121.9 1008 0 2 -- Chart
Japan Meteorological Agency Best Track Data | Correction Date : 1989-06-01
< Typhoon 196902 1969 Season Typhoon 196904 >

Help